Wednesday, February 22, 2017, 12:29 PM EST

KRDG, Reading Regional Airport

Location: Reading, PA, United States Lat: 40.367
Local Time: 12:29 PM EST (17:29 GMT) Lon: -75.967
Time Zone: US/Eastern Elev: 344 ft

Show me the last for .
Show Decoded

2017-02-22 11:54 METAR KRDG 221654Z AUTO 33003KT 10SM BKN120 12/05 A2997 RMK AO2 SLP156 T01170050
                 =
2017-02-22 10:54 METAR KRDG 221554Z AUTO 27004KT 10SM CLR 11/04 A2999 RMK AO2 SLP163 T01060044 =
2017-02-22 09:54 METAR KRDG 221454Z AUTO 18006KT 10SM CLR 09/04 A3002 RMK AO2 SLP171 T00890039
                 58004 =
2017-02-22 08:54 METAR KRDG 221354Z AUTO 00000KT 10SM CLR 07/03 A3002 RMK AO2 SLP174 T00670033 =
2017-02-22 07:54 METAR KRDG 221254Z AUTO 00000KT 10SM FEW100 06/03 A3004 RMK AO2 SLP178 T00560033
                 =
2017-02-22 06:54 METAR KRDG 221154Z AUTO 23003KT 10SM SCT100 06/03 A3003 RMK AO2 SLP176 T00560028
                 10061 20044 55001 =
2017-02-22 05:54 METAR KRDG 221054Z AUTO 00000KT 10SM OVC095 06/03 A3003 RMK AO2 SLP175 T00560028
                 =
2017-02-22 04:54 METAR KRDG 220954Z AUTO 00000KT 10SM BKN090 05/02 A3003 RMK AO2 SLP175 T00500022
                 =
2017-02-21 15:54 METAR KRDG 212054Z AUTO 18007KT 10SM CLR 10/M02 A3017 RMK AO2 SLP223 T01001022
                 56026 =
2017-02-21 14:54 METAR KRDG 211954Z AUTO 17009KT 10SM CLR 11/M02 A3019 RMK AO2 SLP230 T01061017 =
2017-02-21 13:54 METAR KRDG 211854Z AUTO 15006KT 10SM CLR 09/M02 A3021 RMK AO2 SLP238 T00941017 =
2017-02-21 12:54 METAR KRDG 211754Z AUTO 15008KT 110V200 10SM CLR 09/M02 A3025 RMK AO2 SLP249
                 T00891022 10094 21011 58030 =

Support USWX by starting your Amazon purchase here.